Time;durP1;ratioP1;P1;durP2;ratioP2;P2;SDS_P1;SDS_P2;PMS_P1;PMS_P2;Temp;Humidity;BMP_temperature;BMP_pressure;BME280_temperature;BME280_humidity;BME280_pressure;Samples;Min_cycle;Max_cycle;Signal;HPM_P1;HPM_P2
2021/01/09 00:00:37;;;;;;;22.20;14.53;;;;;;;-2.41;84.79;95622.28;5063226;28;20184;-76
2021/01/09 00:03:02;;;;;;;21.87;14.03;;;;;;;-2.39;84.90;95616.22;5064805;28;20229;-75
2021/01/09 00:05:27;;;;;;;24.13;15.17;;;;;;;-2.43;84.66;95613.91;5091082;28;20235;-75
2021/01/09 00:07:53;;;;;;;24.90;14.63;;;;;;;-2.44;84.81;95609.72;5091112;28;20282;-75
2021/01/09 00:10:18;;;;;;;23.47;14.83;;;;;;;-2.45;84.72;95616.53;5068587;28;20750;-75
2021/01/09 00:12:43;;;;;;;23.30;14.13;;;;;;;-2.44;84.96;95612.25;5082047;28;20239;-76
2021/01/09 00:15:10;;;;;;;25.17;14.17;;;;;;;-2.48;85.00;95608.19;5062739;28;20262;-76
2021/01/09 00:17:35;;;;;;;18.03;13.30;;;;;;;-2.50;85.32;95607.44;5043229;28;20207;-76
2021/01/09 00:20:07;;;;;;;20.70;13.63;;;;;;;-2.48;85.23;95620.91;5076380;28;20181;-76
2021/01/09 00:22:33;;;;;;;22.00;14.50;;;;;;;-2.47;85.29;95612.38;5066560;28;20188;-76
2021/01/09 00:24:58;;;;;;;21.33;14.13;;;;;;;-2.47;85.05;95620.00;5071085;28;20250;-76
2021/01/09 00:27:23;;;;;;;19.47;12.43;;;;;;;-2.44;84.78;95618.16;5059852;28;20615;-75
2021/01/09 00:29:48;;;;;;;19.27;12.50;;;;;;;-2.47;85.26;95614.91;5094189;28;20712;-76
2021/01/09 00:32:14;;;;;;;17.63;12.03;;;;;;;-2.47;84.81;95615.75;5085033;28;20186;-76
2021/01/09 00:34:39;;;;;;;20.20;12.30;;;;;;;-2.47;85.43;95623.41;5085838;28;20218;-75
2021/01/09 00:37:05;;;;;;;19.03;12.00;;;;;;;-2.47;85.02;95618.31;5094317;28;20217;-76
2021/01/09 00:39:30;;;;;;;16.77;11.27;;;;;;;-2.43;84.75;95624.06;5059059;28;20185;-76
2021/01/09 00:41:59;;;;;;;18.57;12.47;;;;;;;-2.45;85.27;95619.06;5076127;28;20177;-75
2021/01/09 00:44:25;;;;;;;19.77;12.40;;;;;;;-2.41;85.40;95622.28;5046168;28;20209;-76
2021/01/09 00:46:54;;;;;;;19.17;13.73;;;;;;;-2.39;85.00;95625.56;5073851;28;20197;-76
2021/01/09 00:49:20;;;;;;;19.17;12.63;;;;;;;-2.37;85.40;95619.56;5073705;28;20672;-75
2021/01/09 00:51:45;;;;;;;18.43;13.13;;;;;;;-2.35;85.55;95619.47;5055888;28;20173;-76
2021/01/09 00:54:11;;;;;;;20.20;12.43;;;;;;;-2.36;85.39;95615.28;5095896;28;20211;-76
2021/01/09 00:56:36;;;;;;;18.13;12.13;;;;;;;-2.36;85.52;95616.09;5050734;28;20170;-75
2021/01/09 00:59:01;;;;;;;19.37;12.30;;;;;;;-2.31;85.38;95623.53;5058857;28;20184;-76
2021/01/09 01:01:26;;;;;;;20.27;12.57;;;;;;;-2.34;85.50;95631.28;5075390;28;20211;-76
2021/01/09 01:03:52;;;;;;;20.57;12.23;;;;;;;-2.32;84.86;95632.03;5070150;28;20201;-75
2021/01/09 01:06:22;;;;;;;17.87;11.83;;;;;;;-2.31;85.29;95628.59;5061953;28;20553;-75
2021/01/09 01:08:48;;;;;;;17.60;11.87;;;;;;;-2.31;84.80;95626.88;5079590;28;20203;-75
2021/01/09 01:11:22;;;;;;;19.00;12.17;;;;;;;-2.35;85.34;95630.47;5073433;28;20175;-76
2021/01/09 01:13:48;;;;;;;19.67;12.73;;;;;;;-2.35;85.11;95634.75;5073485;28;20191;-76
2021/01/09 01:16:16;;;;;;;17.80;11.53;;;;;;;-2.32;84.75;95637.13;5046561;28;20191;-76
2021/01/09 01:18:41;;;;;;;19.60;12.47;;;;;;;-2.34;85.36;95636.38;5072965;28;20208;-76
2021/01/09 01:21:07;;;;;;;23.50;12.97;;;;;;;-2.48;85.28;95634.44;5055426;28;20267;-75
2021/01/09 01:23:32;;;;;;;19.77;13.20;;;;;;;-2.47;85.99;95642.88;5054144;28;20203;-75
2021/01/09 01:25:57;;;;;;;17.27;11.60;;;;;;;-2.45;86.00;95648.75;5060656;28;20218;-76
2021/01/09 01:28:22;;;;;;;20.97;12.77;;;;;;;-2.48;85.90;95642.06;5066678;28;20203;-76
2021/01/09 01:30:51;;;;;;;22.43;12.90;;;;;;;-2.45;85.65;95648.75;5093068;28;20243;-75
2021/01/09 01:33:16;;;;;;;18.00;12.90;;;;;;;-2.52;85.85;95644.81;5075202;28;20187;-76
2021/01/09 01:35:41;;;;;;;20.30;13.73;;;;;;;-2.52;86.12;95649.91;5061332;28;20199;-75
2021/01/09 01:38:06;;;;;;;19.43;12.83;;;;;;;-2.64;86.36;95647.00;5088984;28;20260;-75
2021/01/09 01:40:32;;;;;;;20.70;13.50;;;;;;;-2.59;86.90;95650.16;5092847;28;20638;-76
2021/01/09 01:42:57;;;;;;;23.77;13.57;;;;;;;-2.60;86.35;95656.13;5075099;28;20189;-75
2021/01/09 01:45:22;;;;;;;21.90;14.00;;;;;;;-2.62;87.02;95652.84;5081383;28;20203;-76
2021/01/09 01:47:48;;;;;;;20.43;13.83;;;;;;;-2.56;86.87;95649.22;5061262;28;20277;-75
2021/01/09 01:50:14;;;;;;;25.70;15.13;;;;;;;-2.52;86.79;95653.28;5054593;28;20172;-76
2021/01/09 01:52:39;;;;;;;25.10;15.37;;;;;;;-2.51;86.63;95651.56;5054675;28;20202;-76
2021/01/09 01:55:05;;;;;;;28.00;15.40;;;;;;;-2.50;86.80;95651.47;5052586;28;20206;-76
2021/01/09 01:57:30;;;;;;;27.90;16.07;;;;;;;-2.47;86.54;95653.91;5083210;28;20203;-75
2021/01/09 01:59:55;;;;;;;22.13;14.70;;;;;;;-2.43;86.65;95649.50;5074486;28;20240;-75
2021/01/09 02:02:21;;;;;;;27.70;16.27;;;;;;;-2.45;86.59;95643.66;5092678;28;20182;-76
2021/01/09 02:04:56;;;;;;;23.50;14.73;;;;;;;-2.41;87.08;95655.34;5050708;28;20281;-75
2021/01/09 02:07:23;;;;;;;22.53;14.90;;;;;;;-2.39;86.82;95648.47;5060586;28;20219;-76
2021/01/09 02:09:49;;;;;;;25.20;14.83;;;;;;;-2.39;86.68;95646.75;5067644;28;20237;-75
2021/01/09 02:12:25;;;;;;;25.20;15.93;;;;;;;-2.38;86.61;95652.69;5074567;28;20260;-76
2021/01/09 02:14:53;;;;;;;23.87;14.83;;;;;;;-2.40;86.75;95654.44;5060488;28;20175;-75
2021/01/09 02:17:18;;;;;;;23.43;15.20;;;;;;;-2.41;86.34;95660.44;5066836;28;20206;-75
2021/01/09 02:19:44;;;;;;;23.80;15.00;;;;;;;-2.43;86.38;95655.41;5060980;28;20593;-76
2021/01/09 02:22:17;;;;;;;23.33;14.73;;;;;;;-2.41;86.26;95657.88;5037856;28;20214;-76
2021/01/09 02:24:44;;;;;;;23.70;14.43;;;;;;;-2.42;86.25;95656.25;5054013;28;20207;-75
2021/01/09 02:27:09;;;;;;;23.33;14.77;;;;;;;-2.43;86.31;95659.69;5052056;28;20204;-76
2021/01/09 02:29:47;;;;;;;25.93;15.23;;;;;;;-2.45;86.71;95654.66;5082068;28;20174;-76
2021/01/09 02:32:17;;;;;;;24.20;15.07;;;;;;;-2.45;86.56;95646.22;5092021;28;20175;-76
2021/01/09 02:34:52;;;;;;;23.13;14.83;;;;;;;-2.44;86.90;95650.41;5073848;28;20222;-76
2021/01/09 02:37:17;;;;;;;25.17;15.70;;;;;;;-2.41;86.32;95642.63;5073936;28;20289;-76
2021/01/09 02:39:43;;;;;;;26.40;15.27;;;;;;;-2.42;86.25;95649.44;5060562;28;20267;-76
2021/01/09 02:42:08;;;;;;;23.37;15.20;;;;;;;-2.46;86.50;95647.09;5070118;28;20662;-76
2021/01/09 02:44:34;;;;;;;25.53;15.43;;;;;;;-2.47;86.68;95646.28;5073747;28;20199;-76
2021/01/09 02:46:59;;;;;;;24.47;16.60;;;;;;;-2.48;86.47;95648.88;5057119;28;20245;-76
2021/01/09 02:49:25;;;;;;;26.90;16.47;;;;;;;-2.54;86.79;95652.53;5063692;28;20188;-76
2021/01/09 02:51:50;;;;;;;29.70;17.57;;;;;;;-2.51;87.00;95649.84;5048542;28;20186;-76
2021/01/09 02:54:15;;;;;;;27.77;16.77;;;;;;;-2.49;86.32;95649.75;5091790;28;20164;-76
2021/01/09 02:56:41;;;;;;;25.00;15.20;;;;;;;-2.48;86.49;95653.94;5091812;28;20240;-76
2021/01/09 02:59:06;;;;;;;25.70;16.00;;;;;;;-2.53;86.99;95654.16;5087617;28;20195;-76
2021/01/09 03:01:31;;;;;;;25.80;15.67;;;;;;;-2.49;86.81;95659.94;5061872;28;20212;-75
2021/01/09 03:03:57;;;;;;;27.77;16.77;;;;;;;-2.49;86.51;95659.94;5053672;28;20669;-76
2021/01/09 03:06:23;;;;;;;26.90;17.00;;;;;;;-2.46;86.76;95659.81;5036952;28;20186;-76
2021/01/09 03:08:49;;;;;;;30.13;16.80;;;;;;;-2.46;87.17;95664.91;5036543;28;20191;-77
2021/01/09 03:11:15;;;;;;;30.13;16.87;;;;;;;-2.45;87.07;95661.47;5060015;28;20236;-76
2021/01/09 03:13:41;;;;;;;31.37;18.07;;;;;;;-2.43;86.82;95662.22;5065847;28;20275;-77
2021/01/09 03:16:07;;;;;;;24.90;15.80;;;;;;;-2.45;86.60;95666.56;5073540;28;20612;-75
2021/01/09 03:18:32;;;;;;;29.50;16.77;;;;;;;-2.44;86.88;95674.13;5073275;28;20207;-76
2021/01/09 03:20:57;;;;;;;27.70;15.53;;;;;;;-2.47;87.01;95674.25;5064652;28;20711;-76
2021/01/09 03:23:22;;;;;;;26.23;15.77;;;;;;;-2.45;86.90;95674.19;5096816;28;20236;-75
2021/01/09 03:25:48;;;;;;;27.07;15.70;;;;;;;-2.42;86.96;95671.50;5056709;28;20183;-76
2021/01/09 03:28:13;;;;;;;28.70;16.20;;;;;;;-2.41;86.59;95673.97;5091415;28;20206;-76
2021/01/09 03:30:38;;;;;;;27.50;17.10;;;;;;;-2.38;86.57;95678.13;5073272;28;20263;-76
2021/01/09 03:33:04;;;;;;;28.97;17.23;;;;;;;-2.36;86.76;95681.41;5078516;28;20195;-76
2021/01/09 03:35:29;;;;;;;26.60;15.20;;;;;;;-2.35;86.66;95672.88;5053996;28;20183;-76
2021/01/09 03:37:54;;;;;;;25.30;16.27;;;;;;;-2.38;86.43;95673.84;5053350;28;20288;-75
2021/01/09 03:40:20;;;;;;;25.83;15.83;;;;;;;-2.35;86.81;95671.16;5053060;28;20629;-76
2021/01/09 03:42:45;;;;;;;25.67;16.00;;;;;;;-2.34;86.72;95670.28;5056955;28;20212;-75
2021/01/09 03:45:11;;;;;;;26.20;16.60;;;;;;;-2.34;86.62;95666.91;5048029;28;20203;-76
2021/01/09 03:47:36;;;;;;;27.93;16.63;;;;;;;-2.32;86.16;95667.66;5094093;28;20683;-76
2021/01/09 03:50:04;;;;;;;25.47;16.20;;;;;;;-2.33;86.41;95666.84;5095060;28;20229;-76
2021/01/09 03:52:29;;;;;;;23.43;15.93;;;;;;;-2.38;86.03;95666.22;5072554;28;20231;-76
2021/01/09 03:54:54;;;;;;;26.47;16.07;;;;;;;-2.37;86.38;95664.50;5082159;28;20187;-77
2021/01/09 03:57:19;;;;;;;25.63;15.43;;;;;;;-2.36;86.39;95668.69;5086534;28;20211;-76
2021/01/09 03:59:45;;;;;;;25.67;14.57;;;;;;;-2.35;86.61;95673.72;5059859;28;20207;-76
2021/01/09 04:02:10;;;;;;;24.40;14.90;;;;;;;-2.37;86.26;95667.06;5077108;28;20231;-76
2021/01/09 04:04:35;;;;;;;22.90;15.13;;;;;;;-2.38;86.13;95678.94;5064858;28;20241;-76
2021/01/09 04:07:01;;;;;;;24.40;14.43;;;;;;;-2.39;86.26;95679.81;5061312;28;20262;-76
2021/01/09 04:09:26;;;;;;;24.43;14.23;;;;;;;-2.38;86.73;95683.22;5074322;28;20567;-76
2021/01/09 04:11:51;;;;;;;24.63;14.77;;;;;;;-2.42;86.59;95682.50;5074476;28;20188;-76
2021/01/09 04:14:17;;;;;;;25.43;14.60;;;;;;;-2.42;86.80;95677.41;5042075;28;20200;-76
2021/01/09 04:16:42;;;;;;;26.43;15.73;;;;;;;-2.40;86.77;95680.72;5081444;28;20761;-76
2021/01/09 04:19:07;;;;;;;24.83;15.80;;;;;;;-2.39;86.82;95682.34;5059570;28;20274;-76
2021/01/09 04:21:43;;;;;;;30.33;16.07;;;;;;;-2.41;86.99;95684.16;5094603;28;20183;-75
2021/01/09 04:24:08;;;;;;;26.73;16.27;;;;;;;-2.41;86.36;95676.50;5094575;28;20225;-76
2021/01/09 04:26:33;;;;;;;22.93;14.57;;;;;;;-2.43;87.16;95680.03;5063225;28;20225;-76
2021/01/09 04:28:58;;;;;;;26.57;15.50;;;;;;;-2.39;86.91;95682.34;5070957;28;20183;-75
2021/01/09 04:31:24;;;;;;;31.60;17.00;;;;;;;-2.43;86.64;95673.22;5076379;28;20584;-75
2021/01/09 04:33:49;;;;;;;31.83;18.87;;;;;;;-2.46;87.23;95681.00;5076366;28;20650;-75
2021/01/09 04:36:14;;;;;;;32.00;18.80;;;;;;;-2.43;87.42;95680.03;5066085;28;20202;-75
2021/01/09 04:38:40;;;;;;;27.03;15.60;;;;;;;-2.41;87.20;95681.59;5063324;28;20253;-76
2021/01/09 04:41:05;;;;;;;29.17;16.77;;;;;;;-2.46;87.28;95685.25;5056124;28;20190;-75
2021/01/09 04:43:30;;;;;;;27.43;16.47;;;;;;;-2.41;87.78;95683.31;5055806;28;20231;-76
2021/01/09 04:45:56;;;;;;;29.43;17.40;;;;;;;-2.53;88.03;95686.41;5054180;28;20204;-75
2021/01/09 04:48:21;;;;;;;28.00;16.83;;;;;;;-2.50;87.06;95687.09;5065543;28;20214;-75
2021/01/09 04:50:50;;;;;;;33.40;18.33;;;;;;;-2.51;88.04;95687.97;5075720;28;20216;-76
2021/01/09 04:53:17;;;;;;;29.93;18.03;;;;;;;-2.46;87.84;95691.16;5094085;28;20179;-75
2021/01/09 04:55:43;;;;;;;32.00;17.53;;;;;;;-2.41;87.87;95696.03;5075812;28;20171;-76
2021/01/09 04:58:10;;;;;;;33.50;18.13;;;;;;;-2.47;87.50;95686.97;5050504;28;20207;-75
2021/01/09 05:00:36;;;;;;;33.20;19.07;;;;;;;-2.43;87.93;95685.09;5067549;28;20265;-75
2021/01/09 05:03:01;;;;;;;30.57;17.73;;;;;;;-2.45;87.53;95689.44;5094049;28;20183;-75
2021/01/09 05:05:26;;;;;;;35.27;19.23;;;;;;;-2.44;87.44;95688.53;5075569;28;20204;-76
2021/01/09 05:07:52;;;;;;;36.47;20.20;;;;;;;-2.59;87.58;95685.75;5084482;28;20279;-75
2021/01/09 05:10:17;;;;;;;30.07;18.23;;;;;;;-2.52;87.73;95696.50;5081333;28;20191;-75
2021/01/09 05:12:43;;;;;;;32.87;16.90;;;;;;;-2.43;87.48;95690.19;5073377;28;20214;-75
2021/01/09 05:15:08;;;;;;;30.47;16.63;;;;;;;-2.75;88.51;95689.00;5055627;28;20827;-75
2021/01/09 05:17:34;;;;;;;31.33;17.13;;;;;;;-2.67;88.17;95697.13;5072004;28;20215;-75
2021/01/09 05:20:00;;;;;;;26.77;15.93;;;;;;;-2.63;87.70;95704.59;5061346;28;20227;-75
2021/01/09 05:22:26;;;;;;;48.90;18.53;;;;;;;-2.69;88.68;95697.22;5057232;28;20186;-75
2021/01/09 05:24:52;;;;;;;58.30;20.47;;;;;;;-2.66;88.67;95694.53;5077103;28;20307;-74
2021/01/09 05:27:20;;;;;;;95.07;22.90;;;;;;;-2.64;88.90;95705.47;5078165;28;20202;-74
2021/01/09 05:29:51;;;;;;;50.20;20.93;;;;;;;-2.70;88.71;95698.09;5067086;28;20190;-76
2021/01/09 05:32:16;;;;;;;203.23;27.70;;;;;;;-2.63;88.54;95706.31;5066809;28;20189;-75
2021/01/09 05:34:54;;;;;;;156.33;27.67;;;;;;;-2.72;89.03;95704.97;5075168;28;20180;-76
2021/01/09 05:37:20;;;;;;;107.30;25.37;;;;;;;-2.65;89.22;95708.06;5074993;28;20564;-75
2021/01/09 05:39:49;;;;;;;136.30;29.43;;;;;;;-2.70;89.39;95705.72;5085802;28;20184;-75
2021/01/09 05:42:15;;;;;;;281.77;34.37;;;;;;;-2.65;89.00;95705.53;5096821;28;20223;-75
2021/01/09 05:44:41;;;;;;;209.87;32.13;;;;;;;-2.69;89.53;95706.56;5054960;28;20202;-75
2021/01/09 05:47:06;;;;;;;386.67;41.00;;;;;;;-2.72;89.46;95702.44;5054736;28;20258;-75
2021/01/09 05:49:32;;;;;;;595.23;50.50;;;;;;;-2.72;89.39;95704.97;5072392;28;20237;-75
2021/01/09 05:51:57;;;;;;;331.30;37.20;;;;;;;-2.75;89.53;95709.34;5060897;28;20226;-75
2021/01/09 05:54:36;;;;;;;317.03;36.70;;;;;;;-2.78;89.71;95706.94;5072890;28;20625;-76
2021/01/09 05:57:02;;;;;;;167.87;30.73;;;;;;;-2.77;89.28;95704.31;5074703;28;20230;-75
2021/01/09 05:59:27;;;;;;;101.13;28.40;;;;;;;-2.73;89.88;95703.31;5074399;28;20185;-76
2021/01/09 06:01:57;;;;;;;317.20;37.70;;;;;;;-2.72;89.85;95710.06;5039960;28;20276;-76
2021/01/09 06:04:27;;;;;;;323.00;37.30;;;;;;;-2.77;89.34;95716.22;5062508;28;20615;-76
2021/01/09 06:06:58;;;;;;;469.00;42.97;;;;;;;-2.80;89.73;95713.81;5038049;28;20651;-76
2021/01/09 06:09:24;;;;;;;376.67;39.03;;;;;;;-2.78;89.43;95715.38;5053644;28;20203;-76
2021/01/09 06:11:54;;;;;;;286.20;33.07;;;;;;;-2.75;90.02;95710.16;5054082;28;20224;-76
2021/01/09 06:14:20;;;;;;;240.77;35.47;;;;;;;-2.79;90.11;95703.56;5072036;28;20173;-76
2021/01/09 06:16:45;;;;;;;347.90;37.60;;;;;;;-2.71;90.20;95708.34;5057577;28;20203;-76
2021/01/09 06:19:11;;;;;;;320.10;35.30;;;;;;;-2.72;89.58;95707.50;5057140;28;20278;-75
2021/01/09 06:21:37;;;;;;;378.43;38.07;;;;;;;-2.66;89.72;95714.88;5074348;28;20238;-76
2021/01/09 06:24:04;;;;;;;250.33;30.40;;;;;;;-2.72;90.07;95714.31;5056984;28;20242;-75
2021/01/09 06:26:30;;;;;;;319.63;36.90;;;;;;;-2.80;90.19;95727.34;5092216;28;20180;-75
2021/01/09 06:29:19;;;;;;;390.03;43.00;;;;;;;-2.95;90.71;95730.50;5068296;28;20309;-75
2021/01/09 06:31:50;;;;;;;170.67;35.13;;;;;;;-2.93;90.13;95728.72;5073955;28;20188;-76
2021/01/09 06:34:18;;;;;;;201.93;33.70;;;;;;;-2.84;90.21;95730.88;5065331;28;20192;-75
2021/01/09 06:36:47;;;;;;;151.13;29.73;;;;;;;-2.90;89.86;95729.44;5066731;28;20194;-76
2021/01/09 06:39:12;;;;;;;59.90;24.20;;;;;;;-2.94;89.54;95734.69;5073812;28;20180;-75
2021/01/09 06:41:39;;;;;;;41.20;20.60;;;;;;;-3.03;89.53;95732.50;5092106;28;20184;-75
2021/01/09 06:44:06;;;;;;;43.67;20.00;;;;;;;-3.08;89.18;95731.88;5063700;28;20673;-75
2021/01/09 06:46:33;;;;;;;45.80;22.37;;;;;;;-2.97;90.00;95740.72;5081592;28;20173;-75
2021/01/09 06:48:59;;;;;;;50.83;23.90;;;;;;;-2.87;89.29;95736.91;5091787;28;20168;-76
2021/01/09 06:51:40;;;;;;;55.97;23.87;;;;;;;-2.86;89.15;95745.38;5091997;28;20630;-75
2021/01/09 06:54:22;;;;;;;46.40;21.77;;;;;;;-2.92;89.41;95733.72;5069435;28;20559;-76
2021/01/09 06:56:49;;;;;;;40.80;20.27;;;;;;;-2.94;89.27;95740.59;5055213;28;20282;-75
2021/01/09 06:59:33;;;;;;;44.13;21.43;;;;;;;-2.89;89.51;95743.78;5053508;28;20179;-77
2021/01/09 07:02:24;;;;;;;49.43;23.43;;;;;;;-2.96;88.64;95739.81;5071066;28;20230;-76
2021/01/09 07:05:28;;;;;;;42.70;20.97;;;;;;;-2.93;89.50;95739.69;5051627;28;20231;-76
2021/01/09 07:07:56;;;;;;;47.47;22.47;;;;;;;-2.95;89.07;95740.66;4951089;29;20204;-75
2021/01/09 07:10:28;;;;;;;41.60;21.70;;;;;;;-2.93;89.36;95733.78;4934607;29;20316;-76
2021/01/09 07:12:58;;;;;;;39.20;19.93;;;;;;;-2.87;89.15;95742.00;4935198;29;20221;-76
2021/01/09 07:15:26;;;;;;;42.80;21.03;;;;;;;-2.86;89.09;95743.66;4933952;29;20675;-75
2021/01/09 07:17:57;;;;;;;40.60;20.53;;;;;;;-2.91;88.69;95739.66;4950845;29;20265;-75
2021/01/09 07:20:23;;;;;;;38.40;19.33;;;;;;;-2.91;88.67;95743.03;4957788;28;20227;-75
2021/01/09 07:22:52;;;;;;;39.10;19.67;;;;;;;-2.93;88.47;95751.56;4970499;28;20810;-75
2021/01/09 07:25:34;;;;;;;39.10;19.87;;;;;;;-2.97;88.79;95753.44;4935417;29;20232;-75
2021/01/09 07:28:02;;;;;;;43.40;21.53;;;;;;;-3.01;88.21;95748.50;4952716;29;20628;-75
2021/01/09 07:30:29;;;;;;;42.70;21.43;;;;;;;-3.04;88.77;95744.38;4935400;29;20192;-75
2021/01/09 07:32:55;;;;;;;44.07;21.97;;;;;;;-3.02;89.08;95747.69;4951878;29;20191;-75
2021/01/09 07:35:30;;;;;;;50.17;24.63;;;;;;;-2.92;89.28;95751.50;4938283;29;20186;-75
2021/01/09 07:37:58;;;;;;;68.20;24.67;;;;;;;-2.92;88.50;95755.75;4959342;28;20243;-75
2021/01/09 07:40:24;;;;;;;326.83;40.33;;;;;;;-3.03;89.13;95746.03;5070299;28;20179;-75
2021/01/09 07:42:50;;;;;;;54.37;23.20;;;;;;;-3.02;89.70;95751.94;5037308;28;20266;-75
2021/01/09 07:45:21;;;;;;;54.87;25.43;;;;;;;-2.93;89.76;95760.03;5020664;28;20202;-75
2021/01/09 07:47:48;;;;;;;269.77;34.97;;;;;;;-2.96;89.27;95754.25;5064653;28;20252;-75
2021/01/09 07:50:16;;;;;;;169.00;30.10;;;;;;;-3.02;89.18;95762.09;5054838;28;20210;-75
2021/01/09 07:52:41;;;;;;;101.77;25.83;;;;;;;-3.05;89.51;95760.53;5038616;28;20182;-75
2021/01/09 07:55:08;;;;;;;101.33;27.33;;;;;;;-2.99;90.08;95762.84;5056947;28;20661;-74
2021/01/09 07:57:34;;;;;;;50.63;24.63;;;;;;;-3.02;89.35;95768.00;5056949;28;20190;-76
2021/01/09 08:00:01;;;;;;;57.27;25.67;;;;;;;-2.96;89.64;95765.25;5056501;28;20199;-74
2021/01/09 08:02:31;;;;;;;55.60;26.07;;;;;;;-2.84;89.69;95771.53;5055687;28;20183;-74
2021/01/09 08:05:09;;;;;;;50.90;25.43;;;;;;;-2.78;88.92;95775.56;5055768;28;20681;-74
2021/01/09 08:07:39;;;;;;;52.07;25.17;;;;;;;-2.81;88.95;95786.69;5074554;28;20233;-75
2021/01/09 08:10:17;;;;;;;47.07;23.47;;;;;;;-2.89;88.87;95784.44;5074132;28;20647;-75
2021/01/09 08:12:43;;;;;;;50.93;24.37;;;;;;;-2.86;89.26;95789.41;5056465;28;20234;-75
2021/01/09 08:15:09;;;;;;;50.23;25.57;;;;;;;-2.70;88.80;95793.88;5056426;28;20658;-75
2021/01/09 08:17:34;;;;;;;51.47;24.73;;;;;;;-2.75;88.63;95800.84;5074403;28;20218;-74
2021/01/09 08:20:10;;;;;;;51.00;24.27;;;;;;;-2.74;88.39;95795.72;5074063;28;20190;-74
2021/01/09 08:22:48;;;;;;;44.13;23.83;;;;;;;-2.60;88.48;95795.16;5056454;28;20178;-73
2021/01/09 08:25:14;;;;;;;51.33;28.07;;;;;;;-2.50;88.18;95803.22;5056230;28;20197;-73
2021/01/09 08:27:48;;;;;;;44.00;23.80;;;;;;;-2.41;87.21;95801.13;5056409;28;20255;-74
2021/01/09 08:30:16;;;;;;;32.47;18.40;;;;;;;-2.38;86.39;95812.91;5056212;28;20187;-74
2021/01/09 08:32:42;;;;;;;34.97;18.57;;;;;;;-2.34;86.24;95806.81;5040472;28;20217;-75
2021/01/09 08:35:08;;;;;;;52.97;28.07;;;;;;;-2.52;86.62;95812.66;5057967;28;20245;-75
2021/01/09 08:37:33;;;;;;;42.57;24.07;;;;;;;-2.59;86.53;95805.25;5073806;28;20209;-75
2021/01/09 08:40:08;;;;;;;37.53;20.90;;;;;;;-2.76;86.85;95804.28;5055887;28;20182;-75
2021/01/09 08:42:34;;;;;;;30.73;18.20;;;;;;;-2.88;86.98;95810.69;5055972;28;20650;-75
2021/01/09 08:44:59;;;;;;;29.03;16.70;;;;;;;-2.84;86.79;95812.19;5055121;28;20241;-75
2021/01/09 08:47:25;;;;;;;36.47;18.60;;;;;;;-2.84;86.98;95812.19;5072565;28;20202;-75
2021/01/09 08:49:54;;;;;;;31.97;19.07;;;;;;;-2.82;86.88;95813.00;5055865;28;20284;-74
2021/01/09 08:52:23;;;;;;;34.37;18.57;;;;;;;-2.78;85.49;95818.78;5072588;28;20316;-76
2021/01/09 08:54:52;;;;;;;30.23;17.47;;;;;;;-2.69;85.44;95821.78;5055943;28;20169;-74
2021/01/09 08:57:18;;;;;;;32.13;18.60;;;;;;;-2.81;85.37;95822.28;5055747;28;20265;-75
2021/01/09 08:59:44;;;;;;;29.57;17.10;;;;;;;-2.77;85.50;95822.97;5055569;28;20268;-75
2021/01/09 09:02:12;;;;;;;28.20;16.73;;;;;;;-2.80;85.41;95829.00;5072114;28;20275;-75
2021/01/09 09:04:46;;;;;;;26.27;16.03;;;;;;;-2.65;85.27;95828.41;5055731;28;20609;-74
2021/01/09 09:07:12;;;;;;;24.10;14.60;;;;;;;-2.71;84.60;95826.09;5055675;28;20660;-74
2021/01/09 09:09:41;;;;;;;28.93;18.03;;;;;;;-2.54;83.65;95832.22;5055631;28;20190;-75
2021/01/09 09:12:07;;;;;;;26.53;16.07;;;;;;;-2.64;83.34;95834.31;5055475;28;20225;-74
2021/01/09 09:14:33;;;;;;;24.80;15.50;;;;;;;-2.59;82.95;95837.47;5038945;28;20178;-74
2021/01/09 09:17:04;;;;;;;25.67;16.30;;;;;;;-2.53;83.47;95841.50;5055215;28;20185;-75
2021/01/09 09:19:37;;;;;;;24.33;14.93;;;;;;;-2.45;82.16;95844.56;5072992;28;20181;-75
2021/01/09 09:22:02;;;;;;;22.67;14.93;;;;;;;-2.35;81.65;95841.59;5073120;28;20171;-74
2021/01/09 09:24:41;;;;;;;23.17;14.90;;;;;;;-2.38;82.23;95840.91;5055319;28;20206;-74
2021/01/09 09:27:27;;;;;;;23.53;15.43;;;;;;;-2.25;82.78;95848.84;5072827;28;20189;-75
2021/01/09 09:30:05;;;;;;;24.87;15.53;;;;;;;-2.22;82.58;95848.72;5055184;28;20236;-75
2021/01/09 09:32:30;;;;;;;23.67;13.40;;;;;;;-2.02;80.62;95858.91;5074874;28;20245;-74
2021/01/09 09:34:56;;;;;;;24.60;14.57;;;;;;;-2.00;80.99;95857.94;5055240;28;20246;-75
2021/01/09 09:37:21;;;;;;;22.93;14.07;;;;;;;-1.90;80.70;95860.91;5072863;28;20202;-75
2021/01/09 09:39:46;;;;;;;20.63;12.90;;;;;;;-1.73;79.63;95860.22;5037513;28;20654;-74
2021/01/09 09:42:12;;;;;;;25.63;15.90;;;;;;;-1.83;79.06;95858.94;5072755;28;20175;-75
2021/01/09 09:44:39;;;;;;;20.00;13.20;;;;;;;-1.85;78.85;95865.84;5053279;28;20206;-75
2021/01/09 09:47:23;;;;;;;25.13;14.77;;;;;;;-1.46;78.81;95869.19;5054768;28;20198;-75
2021/01/09 09:49:48;;;;;;;25.10;14.43;;;;;;;-1.26;78.98;95864.94;5055363;28;20179;-75
2021/01/09 09:52:15;;;;;;;22.53;15.23;;;;;;;-1.16;78.19;95863.63;5038082;28;20187;-76
2021/01/09 09:54:40;;;;;;;23.10;15.63;;;;;;;-1.04;77.88;95870.72;5072391;28;20173;-75
2021/01/09 09:57:06;;;;;;;18.73;12.70;;;;;;;-0.86;75.73;95875.00;5054670;28;20206;-76
2021/01/09 09:59:31;;;;;;;21.57;12.93;;;;;;;-1.00;76.48;95864.59;5071000;28;20196;-75
2021/01/09 10:02:00;;;;;;;17.10;11.43;;;;;;;-0.98;75.42;95867.06;5054637;28;20177;-75
2021/01/09 10:04:27;;;;;;;16.90;11.13;;;;;;;-0.63;73.18;95867.97;5072331;28;20218;-74
2021/01/09 10:06:53;;;;;;;15.97;11.07;;;;;;;-0.72;73.85;95865.84;5054513;28;20338;-75
2021/01/09 10:09:19;;;;;;;15.17;10.40;;;;;;;-0.58;72.55;95864.31;5054035;28;20267;-75
2021/01/09 10:11:46;;;;;;;16.53;10.60;;;;;;;-0.65;73.43;95869.78;5054445;28;20184;-75
2021/01/09 10:14:11;;;;;;;16.70;11.60;;;;;;;-0.88;73.67;95866.59;5072241;28;20373;-75
2021/01/09 10:16:37;;;;;;;18.60;12.33;;;;;;;-0.77;74.05;95866.09;5054419;28;20655;-75
2021/01/09 10:19:03;;;;;;;17.83;11.90;;;;;;;-1.04;74.42;95868.19;5037395;28;20312;-76
2021/01/09 10:21:30;;;;;;;22.20;14.30;;;;;;;-1.39;74.26;95869.75;5070880;28;20223;-75
2021/01/09 10:23:58;;;;;;;18.50;12.33;;;;;;;-1.46;73.77;95869.19;5054093;28;20208;-75
2021/01/09 10:26:34;;;;;;;18.23;11.70;;;;;;;-1.65;74.28;95865.81;5037583;28;20178;-75
2021/01/09 10:29:01;;;;;;;30.33;16.40;;;;;;;-1.42;75.09;95865.59;5037216;28;20664;-74
2021/01/09 10:31:32;;;;;;;17.20;11.80;;;;;;;-1.24;74.28;95869.06;5054113;28;20184;-74
2021/01/09 10:33:58;;;;;;;20.97;12.33;;;;;;;-1.31;74.52;95867.72;5071821;28;20173;-75
2021/01/09 10:36:24;;;;;;;17.00;11.13;;;;;;;-1.31;75.45;95867.72;5053828;28;20222;-75
2021/01/09 10:38:50;;;;;;;16.23;10.90;;;;;;;-1.25;74.55;95866.59;5071460;28;20207;-75
2021/01/09 10:41:15;;;;;;;16.77;10.57;;;;;;;-1.17;73.97;95864.53;5053938;28;20705;-75
2021/01/09 10:43:40;;;;;;;17.50;11.03;;;;;;;-1.30;74.18;95874.44;5053685;28;20184;-75
2021/01/09 10:46:05;;;;;;;17.03;11.23;;;;;;;-1.54;75.20;95868.69;5037208;28;20182;-74
2021/01/09 10:48:31;;;;;;;20.07;12.60;;;;;;;-1.51;75.04;95866.00;5071440;28;20204;-75
2021/01/09 10:50:56;;;;;;;15.87;10.00;;;;;;;-1.32;75.29;95860.97;5071756;28;20365;-75
2021/01/09 10:53:21;;;;;;;12.53;8.77;;;;;;;-1.18;73.99;95857.78;5053691;28;20182;-75
2021/01/09 10:55:47;;;;;;;13.83;8.50;;;;;;;-1.53;74.12;95861.88;5053664;28;20204;-74
2021/01/09 10:58:13;;;;;;;14.60;9.43;;;;;;;-1.42;74.77;95865.59;5053674;28;20200;-74
2021/01/09 11:00:38;;;;;;;14.77;9.57;;;;;;;-1.28;75.06;95870.09;5053520;28;20218;-75
2021/01/09 11:03:03;;;;;;;16.03;10.40;;;;;;;-1.17;74.82;95861.97;5053510;28;20183;-75
2021/01/09 11:05:31;;;;;;;12.87;8.73;;;;;;;-1.22;73.71;95866.47;5071538;28;20300;-74
2021/01/09 11:07:56;;;;;;;19.20;11.60;;;;;;;-1.47;74.50;95867.53;5069209;28;20215;-74
2021/01/09 11:10:21;;;;;;;20.70;13.90;;;;;;;-1.54;74.83;95858.50;5051056;28;20198;-75
2021/01/09 11:12:47;;;;;;;18.37;11.57;;;;;;;-1.51;74.83;95858.38;5034664;28;20192;-74
2021/01/09 11:15:13;;;;;;;17.10;10.73;;;;;;;-1.33;74.38;95861.00;5071009;28;20218;-74
2021/01/09 11:17:38;;;;;;;15.90;10.73;;;;;;;-1.24;74.16;95860.59;5036763;28;20295;-74